sensor_id;sensor_type;location;lat;lon;timestamp;P1;durP1;ratioP1;P2;durP2;ratioP2
27031;SDS011;14580;52.918;9.214;2023-02-28T00:00:43;6.30;;;3.53;;
27031;SDS011;14580;52.918;9.214;2023-02-28T00:04:09;7.63;;;4.63;;
27031;SDS011;14580;52.918;9.214;2023-02-28T00:07:35;7.83;;;4.33;;
27031;SDS011;14580;52.918;9.214;2023-02-28T00:11:05;11.87;;;6.53;;
27031;SDS011;14580;52.918;9.214;2023-02-28T00:14:35;16.83;;;7.97;;
27031;SDS011;14580;52.918;9.214;2023-02-28T00:18:00;15.97;;;7.70;;
27031;SDS011;14580;52.918;9.214;2023-02-28T00:21:26;14.83;;;8.53;;
27031;SDS011;14580;52.918;9.214;2023-02-28T00:24:53;16.87;;;6.13;;
27031;SDS011;14580;52.918;9.214;2023-02-28T00:28:19;14.00;;;6.90;;
27031;SDS011;14580;52.918;9.214;2023-02-28T00:31:44;7.23;;;4.77;;
27031;SDS011;14580;52.918;9.214;2023-02-28T00:35:00;7.53;;;4.10;;
27031;SDS011;14580;52.918;9.214;2023-02-28T00:38:30;5.47;;;3.57;;
27031;SDS011;14580;52.918;9.214;2023-02-28T00:41:55;4.37;;;3.43;;
27031;SDS011;14580;52.918;9.214;2023-02-28T00:45:20;5.10;;;3.67;;
27031;SDS011;14580;52.918;9.214;2023-02-28T00:48:45;5.63;;;3.93;;
27031;SDS011;14580;52.918;9.214;2023-02-28T00:52:12;4.60;;;4.10;;
27031;SDS011;14580;52.918;9.214;2023-02-28T00:54:43;6.50;;;4.17;;
27031;SDS011;14580;52.918;9.214;2023-02-28T00:57:09;6.37;;;3.53;;
27031;SDS011;14580;52.918;9.214;2023-02-28T00:59:36;5.40;;;3.80;;
27031;SDS011;14580;52.918;9.214;2023-02-28T01:02:02;5.23;;;3.50;;
27031;SDS011;14580;52.918;9.214;2023-02-28T01:04:29;5.83;;;3.53;;
27031;SDS011;14580;52.918;9.214;2023-02-28T01:06:56;4.77;;;3.10;;
27031;SDS011;14580;52.918;9.214;2023-02-28T01:09:22;5.43;;;3.33;;
27031;SDS011;14580;52.918;9.214;2023-02-28T01:11:48;6.47;;;3.17;;
27031;SDS011;14580;52.918;9.214;2023-02-28T01:14:16;5.40;;;3.50;;
27031;SDS011;14580;52.918;9.214;2023-02-28T01:16:43;3.83;;;3.20;;
27031;SDS011;14580;52.918;9.214;2023-02-28T01:19:10;5.70;;;3.20;;
27031;SDS011;14580;52.918;9.214;2023-02-28T01:21:36;5.27;;;3.10;;
27031;SDS011;14580;52.918;9.214;2023-02-28T01:25:01;4.73;;;3.17;;
27031;SDS011;14580;52.918;9.214;2023-02-28T01:28:34;5.30;;;3.13;;
27031;SDS011;14580;52.918;9.214;2023-02-28T01:31:59;4.73;;;3.13;;
27031;SDS011;14580;52.918;9.214;2023-02-28T01:35:24;4.13;;;3.00;;
27031;SDS011;14580;52.918;9.214;2023-02-28T01:38:49;4.40;;;2.93;;
27031;SDS011;14580;52.918;9.214;2023-02-28T01:42:14;4.17;;;3.20;;
27031;SDS011;14580;52.918;9.214;2023-02-28T01:45:53;4.40;;;2.90;;
27031;SDS011;14580;52.918;9.214;2023-02-28T01:49:18;5.37;;;3.13;;
27031;SDS011;14580;52.918;9.214;2023-02-28T01:52:45;6.37;;;3.43;;
27031;SDS011;14580;52.918;9.214;2023-02-28T01:56:15;5.30;;;2.93;;
27031;SDS011;14580;52.918;9.214;2023-02-28T01:59:48;6.07;;;2.97;;
27031;SDS011;14580;52.918;9.214;2023-02-28T02:03:18;5.23;;;3.00;;
27031;SDS011;14580;52.918;9.214;2023-02-28T02:06:45;5.90;;;3.20;;
27031;SDS011;14580;52.918;9.214;2023-02-28T02:10:15;4.87;;;3.30;;
27031;SDS011;14580;52.918;9.214;2023-02-28T02:17:44;4.93;;;3.63;;
27031;SDS011;14580;52.918;9.214;2023-02-28T02:38:31;7.77;;;4.20;;
27031;SDS011;14580;52.918;9.214;2023-02-28T02:46:00;6.67;;;3.57;;
27031;SDS011;14580;52.918;9.214;2023-02-28T02:48:40;5.43;;;3.83;;
27031;SDS011;14580;52.918;9.214;2023-02-28T02:52:09;5.63;;;4.53;;
27031;SDS011;14580;52.918;9.214;2023-02-28T02:55:13;3.83;;;3.27;;
27031;SDS011;14580;52.918;9.214;2023-02-28T02:57:45;4.47;;;3.47;;
27031;SDS011;14580;52.918;9.214;2023-02-28T03:01:07;6.13;;;3.50;;
27031;SDS011;14580;52.918;9.214;2023-02-28T03:03:42;3.87;;;3.37;;
27031;SDS011;14580;52.918;9.214;2023-02-28T03:06:10;4.27;;;3.47;;
27031;SDS011;14580;52.918;9.214;2023-02-28T03:08:37;4.10;;;3.27;;
27031;SDS011;14580;52.918;9.214;2023-02-28T03:11:05;5.33;;;3.43;;
27031;SDS011;14580;52.918;9.214;2023-02-28T03:13:55;3.57;;;3.10;;
27031;SDS011;14580;52.918;9.214;2023-02-28T03:16:36;4.80;;;3.50;;
27031;SDS011;14580;52.918;9.214;2023-02-28T03:19:55;4.17;;;3.20;;
27031;SDS011;14580;52.918;9.214;2023-02-28T03:26:29;5.30;;;3.87;;
27031;SDS011;14580;52.918;9.214;2023-02-28T03:35:30;7.53;;;3.43;;
27031;SDS011;14580;52.918;9.214;2023-02-28T03:38:33;3.27;;;2.93;;
27031;SDS011;14580;52.918;9.214;2023-02-28T03:42:17;4.37;;;3.03;;
27031;SDS011;14580;52.918;9.214;2023-02-28T03:45:40;3.97;;;3.40;;
27031;SDS011;14580;52.918;9.214;2023-02-28T03:49:09;6.70;;;3.53;;
27031;SDS011;14580;52.918;9.214;2023-02-28T03:52:47;5.73;;;3.60;;
27031;SDS011;14580;52.918;9.214;2023-02-28T03:56:56;5.10;;;3.70;;
27031;SDS011;14580;52.918;9.214;2023-02-28T04:00:40;6.17;;;3.47;;
27031;SDS011;14580;52.918;9.214;2023-02-28T04:04:09;4.60;;;3.30;;
27031;SDS011;14580;52.918;9.214;2023-02-28T04:07:34;5.73;;;3.90;;
27031;SDS011;14580;52.918;9.214;2023-02-28T04:10:43;8.03;;;3.93;;
27031;SDS011;14580;52.918;9.214;2023-02-28T04:14:16;5.27;;;3.57;;
27031;SDS011;14580;52.918;9.214;2023-02-28T04:17:42;6.10;;;3.80;;
27031;SDS011;14580;52.918;9.214;2023-02-28T04:20:59;4.03;;;3.53;;
27031;SDS011;14580;52.918;9.214;2023-02-28T04:24:25;5.27;;;3.63;;
27031;SDS011;14580;52.918;9.214;2023-02-28T04:27:52;5.50;;;3.70;;
27031;SDS011;14580;52.918;9.214;2023-02-28T04:31:09;4.30;;;3.20;;
27031;SDS011;14580;52.918;9.214;2023-02-28T04:34:32;5.10;;;3.83;;
27031;SDS011;14580;52.918;9.214;2023-02-28T04:37:48;5.23;;;3.83;;
27031;SDS011;14580;52.918;9.214;2023-02-28T04:41:13;5.43;;;3.63;;
27031;SDS011;14580;52.918;9.214;2023-02-28T04:44:38;6.43;;;4.30;;
27031;SDS011;14580;52.918;9.214;2023-02-28T04:48:04;4.43;;;3.50;;
27031;SDS011;14580;52.918;9.214;2023-02-28T04:50:31;6.10;;;3.60;;
27031;SDS011;14580;52.918;9.214;2023-02-28T04:52:58;5.83;;;4.10;;
27031;SDS011;14580;52.918;9.214;2023-02-28T04:55:28;5.23;;;3.83;;
27031;SDS011;14580;52.918;9.214;2023-02-28T04:58:18;6.93;;;4.07;;
27031;SDS011;14580;52.918;9.214;2023-02-28T05:01:13;5.90;;;3.97;;
27031;SDS011;14580;52.918;9.214;2023-02-28T05:04:12;5.00;;;3.60;;
27031;SDS011;14580;52.918;9.214;2023-02-28T05:06:41;8.17;;;3.90;;
27031;SDS011;14580;52.918;9.214;2023-02-28T05:09:10;6.90;;;4.27;;
27031;SDS011;14580;52.918;9.214;2023-02-28T05:11:38;8.43;;;4.43;;
27031;SDS011;14580;52.918;9.214;2023-02-28T05:15:04;6.57;;;4.20;;
27031;SDS011;14580;52.918;9.214;2023-02-28T05:18:30;6.53;;;4.30;;
27031;SDS011;14580;52.918;9.214;2023-02-28T05:21:55;7.83;;;5.20;;
27031;SDS011;14580;52.918;9.214;2023-02-28T05:25:22;6.87;;;4.50;;
27031;SDS011;14580;52.918;9.214;2023-02-28T05:28:00;6.20;;;4.33;;
27031;SDS011;14580;52.918;9.214;2023-02-28T05:31:26;7.53;;;4.67;;
27031;SDS011;14580;52.918;9.214;2023-02-28T05:34:51;6.47;;;4.27;;
27031;SDS011;14580;52.918;9.214;2023-02-28T05:38:03;9.47;;;4.60;;
27031;SDS011;14580;52.918;9.214;2023-02-28T05:41:30;5.13;;;3.93;;
27031;SDS011;14580;52.918;9.214;2023-02-28T05:44:56;7.50;;;4.43;;
27031;SDS011;14580;52.918;9.214;2023-02-28T05:48:22;5.93;;;4.63;;
27031;SDS011;14580;52.918;9.214;2023-02-28T05:51:52;6.27;;;4.17;;
27031;SDS011;14580;52.918;9.214;2023-02-28T05:55:18;4.40;;;3.97;;
27031;SDS011;14580;52.918;9.214;2023-02-28T05:58:44;5.57;;;4.93;;
27031;SDS011;14580;52.918;9.214;2023-02-28T06:02:13;6.80;;;4.53;;
27031;SDS011;14580;52.918;9.214;2023-02-28T06:05:40;5.73;;;4.67;;
27031;SDS011;14580;52.918;9.214;2023-02-28T06:09:06;5.63;;;4.17;;
27031;SDS011;14580;52.918;9.214;2023-02-28T06:12:32;8.30;;;4.43;;
27031;SDS011;14580;52.918;9.214;2023-02-28T06:16:00;7.90;;;5.77;;
27031;SDS011;14580;52.918;9.214;2023-02-28T06:19:26;10.33;;;7.33;;
27031;SDS011;14580;52.918;9.214;2023-02-28T06:22:54;12.67;;;8.33;;
27031;SDS011;14580;52.918;9.214;2023-02-28T06:26:22;10.93;;;7.90;;
27031;SDS011;14580;52.918;9.214;2023-02-28T06:29:47;12.57;;;7.53;;
27031;SDS011;14580;52.918;9.214;2023-02-28T06:33:12;5.93;;;4.23;;
27031;SDS011;14580;52.918;9.214;2023-02-28T06:36:41;5.27;;;4.20;;
27031;SDS011;14580;52.918;9.214;2023-02-28T06:40:07;5.93;;;4.20;;
27031;SDS011;14580;52.918;9.214;2023-02-28T06:43:34;9.27;;;4.70;;
27031;SDS011;14580;52.918;9.214;2023-02-28T06:47:02;5.43;;;4.53;;
27031;SDS011;14580;52.918;9.214;2023-02-28T06:50:28;5.43;;;4.37;;
27031;SDS011;14580;52.918;9.214;2023-02-28T06:53:53;5.60;;;4.40;;
27031;SDS011;14580;52.918;9.214;2023-02-28T06:57:28;5.07;;;4.23;;
27031;SDS011;14580;52.918;9.214;2023-02-28T07:00:53;4.67;;;4.13;;
27031;SDS011;14580;52.918;9.214;2023-02-28T07:04:20;6.63;;;4.20;;
27031;SDS011;14580;52.918;9.214;2023-02-28T07:07:45;4.80;;;4.20;;
27031;SDS011;14580;52.918;9.214;2023-02-28T07:11:10;6.33;;;4.40;;
27031;SDS011;14580;52.918;9.214;2023-02-28T07:14:36;6.87;;;4.87;;
27031;SDS011;14580;52.918;9.214;2023-02-28T07:18:02;7.60;;;5.10;;
27031;SDS011;14580;52.918;9.214;2023-02-28T07:21:27;7.27;;;5.07;;
27031;SDS011;14580;52.918;9.214;2023-02-28T07:24:53;7.03;;;5.10;;
27031;SDS011;14580;52.918;9.214;2023-02-28T07:28:18;6.73;;;5.00;;
27031;SDS011;14580;52.918;9.214;2023-02-28T07:31:43;8.90;;;6.10;;
27031;SDS011;14580;52.918;9.214;2023-02-28T07:35:08;6.70;;;5.50;;
27031;SDS011;14580;52.918;9.214;2023-02-28T07:38:39;8.30;;;5.47;;
27031;SDS011;14580;52.918;9.214;2023-02-28T07:42:06;8.97;;;4.90;;
27031;SDS011;14580;52.918;9.214;2023-02-28T07:45:32;5.63;;;4.70;;
27031;SDS011;14580;52.918;9.214;2023-02-28T07:49:00;10.30;;;6.43;;
27031;SDS011;14580;52.918;9.214;2023-02-28T07:52:26;9.77;;;6.07;;
27031;SDS011;14580;52.918;9.214;2023-02-28T07:55:08;7.77;;;5.17;;
27031;SDS011;14580;52.918;9.214;2023-02-28T07:58:35;9.80;;;6.90;;
27031;SDS011;14580;52.918;9.214;2023-02-28T08:02:01;9.07;;;6.27;;
27031;SDS011;14580;52.918;9.214;2023-02-28T08:04:53;11.43;;;6.33;;
27031;SDS011;14580;52.918;9.214;2023-02-28T08:07:19;13.63;;;6.83;;
27031;SDS011;14580;52.918;9.214;2023-02-28T08:09:49;7.97;;;6.17;;
27031;SDS011;14580;52.918;9.214;2023-02-28T08:12:16;10.90;;;6.07;;
27031;SDS011;14580;52.918;9.214;2023-02-28T08:14:42;6.47;;;5.33;;
27031;SDS011;14580;52.918;9.214;2023-02-28T08:17:15;6.63;;;5.50;;
27031;SDS011;14580;52.918;9.214;2023-02-28T08:19:47;8.07;;;5.43;;
27031;SDS011;14580;52.918;9.214;2023-02-28T08:23:14;9.00;;;5.57;;
27031;SDS011;14580;52.918;9.214;2023-02-28T08:26:35;8.67;;;5.00;;
27031;SDS011;14580;52.918;9.214;2023-02-28T08:29:30;6.67;;;4.83;;
27031;SDS011;14580;52.918;9.214;2023-02-28T08:32:41;9.90;;;5.40;;
27031;SDS011;14580;52.918;9.214;2023-02-28T08:35:08;7.40;;;5.47;;
27031;SDS011;14580;52.918;9.214;2023-02-28T08:37:36;10.23;;;5.27;;
27031;SDS011;14580;52.918;9.214;2023-02-28T08:40:05;6.60;;;5.23;;
27031;SDS011;14580;52.918;9.214;2023-02-28T08:42:33;7.10;;;4.50;;
27031;SDS011;14580;52.918;9.214;2023-02-28T08:44:59;7.43;;;5.27;;
27031;SDS011;14580;52.918;9.214;2023-02-28T08:47:26;10.53;;;6.27;;
27031;SDS011;14580;52.918;9.214;2023-02-28T08:49:52;10.23;;;6.83;;
27031;SDS011;14580;52.918;9.214;2023-02-28T08:52:20;10.00;;;6.23;;
27031;SDS011;14580;52.918;9.214;2023-02-28T08:54:46;8.80;;;5.53;;
27031;SDS011;14580;52.918;9.214;2023-02-28T08:57:16;9.20;;;5.93;;
27031;SDS011;14580;52.918;9.214;2023-02-28T08:59:42;6.23;;;4.87;;
27031;SDS011;14580;52.918;9.214;2023-02-28T09:02:11;6.77;;;3.80;;
27031;SDS011;14580;52.918;9.214;2023-02-28T09:04:40;6.17;;;3.90;;
27031;SDS011;14580;52.918;9.214;2023-02-28T09:07:07;4.03;;;3.47;;
27031;SDS011;14580;52.918;9.214;2023-02-28T09:09:33;4.07;;;3.60;;
27031;SDS011;14580;52.918;9.214;2023-02-28T09:12:00;4.37;;;3.47;;
27031;SDS011;14580;52.918;9.214;2023-02-28T09:14:27;3.53;;;2.33;;
27031;SDS011;14580;52.918;9.214;2023-02-28T09:16:53;4.63;;;3.00;;
27031;SDS011;14580;52.918;9.214;2023-02-28T09:19:23;5.27;;;3.07;;
27031;SDS011;14580;52.918;9.214;2023-02-28T09:21:49;5.07;;;3.27;;
27031;SDS011;14580;52.918;9.214;2023-02-28T09:24:18;4.40;;;3.60;;
27031;SDS011;14580;52.918;9.214;2023-02-28T09:27:07;3.73;;;3.03;;
27031;SDS011;14580;52.918;9.214;2023-02-28T09:29:33;7.13;;;3.30;;
27031;SDS011;14580;52.918;9.214;2023-02-28T09:32:00;3.87;;;3.20;;
27031;SDS011;14580;52.918;9.214;2023-02-28T09:34:27;3.90;;;3.20;;
27031;SDS011;14580;52.918;9.214;2023-02-28T09:36:55;4.57;;;3.23;;
27031;SDS011;14580;52.918;9.214;2023-02-28T09:39:22;2.50;;;2.30;;
27031;SDS011;14580;52.918;9.214;2023-02-28T09:41:52;3.97;;;2.73;;
27031;SDS011;14580;52.918;9.214;2023-02-28T09:47:01;2.67;;;2.20;;
27031;SDS011;14580;52.918;9.214;2023-02-28T09:49:43;3.47;;;2.47;;
27031;SDS011;14580;52.918;9.214;2023-02-28T09:52:20;6.50;;;2.17;;
27031;SDS011;14580;52.918;9.214;2023-02-28T09:54:55;3.70;;;2.27;;
27031;SDS011;14580;52.918;9.214;2023-02-28T10:03:41;5.97;;;2.33;;
27031;SDS011;14580;52.918;9.214;2023-02-28T10:06:17;3.03;;;2.30;;
27031;SDS011;14580;52.918;9.214;2023-02-28T10:11:24;6.13;;;2.53;;
27031;SDS011;14580;52.918;9.214;2023-02-28T10:24:50;4.93;;;1.87;;
27031;SDS011;14580;52.918;9.214;2023-02-28T10:27:22;2.53;;;2.10;;
27031;SDS011;14580;52.918;9.214;2023-02-28T10:29:54;1.87;;;1.37;;
27031;SDS011;14580;52.918;9.214;2023-02-28T10:32:31;1.23;;;1.03;;
27031;SDS011;14580;52.918;9.214;2023-02-28T10:37:47;1.93;;;1.20;;
27031;SDS011;14580;52.918;9.214;2023-02-28T10:42:55;1.63;;;1.03;;
27031;SDS011;14580;52.918;9.214;2023-02-28T10:45:34;2.40;;;1.33;;
27031;SDS011;14580;52.918;9.214;2023-02-28T10:48:24;1.83;;;0.87;;
27031;SDS011;14580;52.918;9.214;2023-02-28T10:51:15;1.07;;;0.77;;
27031;SDS011;14580;52.918;9.214;2023-02-28T10:53:48;0.93;;;0.90;;
27031;SDS011;14580;52.918;9.214;2023-02-28T10:56:23;1.50;;;1.10;;
27031;SDS011;14580;52.918;9.214;2023-02-28T11:01:41;1.00;;;0.90;;
27031;SDS011;14580;52.918;9.214;2023-02-28T11:07:11;0.83;;;0.80;;
27031;SDS011;14580;52.918;9.214;2023-02-28T11:09:54;1.07;;;0.90;;
27031;SDS011;14580;52.918;9.214;2023-02-28T11:12:29;0.97;;;0.87;;
27031;SDS011;14580;52.918;9.214;2023-02-28T11:15:05;0.80;;;0.70;;
27031;SDS011;14580;52.918;9.214;2023-02-28T11:17:54;2.83;;;0.70;;
27031;SDS011;14580;52.918;9.214;2023-02-28T11:20:30;1.43;;;0.93;;
27031;SDS011;14580;52.918;9.214;2023-02-28T11:23:00;3.10;;;1.10;;
27031;SDS011;14580;52.918;9.214;2023-02-28T11:25:33;1.37;;;1.00;;
27031;SDS011;14580;52.918;9.214;2023-02-28T11:28:04;1.70;;;0.80;;
27031;SDS011;14580;52.918;9.214;2023-02-28T11:30:53;0.83;;;0.67;;
27031;SDS011;14580;52.918;9.214;2023-02-28T11:33:52;2.77;;;0.97;;
27031;SDS011;14580;52.918;9.214;2023-02-28T11:36:25;1.47;;;0.70;;
27031;SDS011;14580;52.918;9.214;2023-02-28T11:39:07;0.83;;;0.80;;
27031;SDS011;14580;52.918;9.214;2023-02-28T11:49:48;0.77;;;0.67;;
27031;SDS011;14580;52.918;9.214;2023-02-28T12:01:47;1.10;;;0.97;;
27031;SDS011;14580;52.918;9.214;2023-02-28T12:04:41;0.90;;;0.80;;
27031;SDS011;14580;52.918;9.214;2023-02-28T12:11:16;0.60;;;0.60;;
27031;SDS011;14580;52.918;9.214;2023-02-28T12:19:41;1.43;;;0.90;;
27031;SDS011;14580;52.918;9.214;2023-02-28T12:22:46;2.73;;;0.97;;
27031;SDS011;14580;52.918;9.214;2023-02-28T12:25:32;1.47;;;0.83;;
27031;SDS011;14580;52.918;9.214;2023-02-28T12:28:25;1.57;;;0.90;;
27031;SDS011;14580;52.918;9.214;2023-02-28T12:31:01;0.90;;;0.90;;
27031;SDS011;14580;52.918;9.214;2023-02-28T12:33:52;1.00;;;0.90;;
27031;SDS011;14580;52.918;9.214;2023-02-28T12:36:27;1.00;;;0.90;;
27031;SDS011;14580;52.918;9.214;2023-02-28T12:39:08;2.30;;;0.90;;
27031;SDS011;14580;52.918;9.214;2023-02-28T12:42:42;1.50;;;1.10;;
27031;SDS011;14580;52.918;9.214;2023-02-28T12:47:46;1.87;;;0.90;;
27031;SDS011;14580;52.918;9.214;2023-02-28T12:50:21;1.73;;;0.77;;
27031;SDS011;14580;52.918;9.214;2023-02-28T13:07:11;1.20;;;1.00;;
27031;SDS011;14580;52.918;9.214;2023-02-28T13:10:02;1.37;;;1.00;;
27031;SDS011;14580;52.918;9.214;2023-02-28T13:12:32;2.77;;;1.10;;
27031;SDS011;14580;52.918;9.214;2023-02-28T13:15:07;1.83;;;1.07;;
27031;SDS011;14580;52.918;9.214;2023-02-28T13:17:50;0.63;;;0.63;;
27031;SDS011;14580;52.918;9.214;2023-02-28T13:20:33;1.63;;;0.90;;
27031;SDS011;14580;52.918;9.214;2023-02-28T13:23:16;0.97;;;0.90;;
27031;SDS011;14580;52.918;9.214;2023-02-28T13:34:37;1.50;;;1.13;;
27031;SDS011;14580;52.918;9.214;2023-02-28T13:39:50;1.77;;;1.00;;
27031;SDS011;14580;52.918;9.214;2023-02-28T13:47:44;1.10;;;0.93;;
27031;SDS011;14580;52.918;9.214;2023-02-28T13:53:29;0.80;;;0.73;;
27031;SDS011;14580;52.918;9.214;2023-02-28T13:56:20;1.30;;;0.80;;
27031;SDS011;14580;52.918;9.214;2023-02-28T13:59:06;1.00;;;0.90;;
27031;SDS011;14580;52.918;9.214;2023-02-28T14:04:50;1.00;;;0.90;;
27031;SDS011;14580;52.918;9.214;2023-02-28T14:07:33;1.20;;;0.80;;
27031;SDS011;14580;52.918;9.214;2023-02-28T14:10:21;1.33;;;0.97;;
27031;SDS011;14580;52.918;9.214;2023-02-28T14:13:01;1.20;;;1.07;;
27031;SDS011;14580;52.918;9.214;2023-02-28T14:15:57;1.13;;;0.90;;
27031;SDS011;14580;52.918;9.214;2023-02-28T14:18:27;1.23;;;1.00;;
27031;SDS011;14580;52.918;9.214;2023-02-28T14:24:09;1.47;;;1.03;;
27031;SDS011;14580;52.918;9.214;2023-02-28T14:30:17;0.80;;;0.80;;
27031;SDS011;14580;52.918;9.214;2023-02-28T14:36:14;1.00;;;0.70;;
27031;SDS011;14580;52.918;9.214;2023-02-28T14:38:54;1.27;;;0.90;;
27031;SDS011;14580;52.918;9.214;2023-02-28T14:41:30;2.43;;;1.20;;
27031;SDS011;14580;52.918;9.214;2023-02-28T14:44:01;1.30;;;1.20;;
27031;SDS011;14580;52.918;9.214;2023-02-28T14:46:39;1.00;;;0.90;;
27031;SDS011;14580;52.918;9.214;2023-02-28T14:49:27;1.00;;;1.00;;
27031;SDS011;14580;52.918;9.214;2023-02-28T14:52:07;1.20;;;1.10;;
27031;SDS011;14580;52.918;9.214;2023-02-28T14:54:45;1.20;;;0.90;;
27031;SDS011;14580;52.918;9.214;2023-02-28T14:57:25;1.60;;;1.07;;
27031;SDS011;14580;52.918;9.214;2023-02-28T15:02:37;1.60;;;1.23;;
27031;SDS011;14580;52.918;9.214;2023-02-28T15:07:43;2.07;;;1.20;;
27031;SDS011;14580;52.918;9.214;2023-02-28T15:10:15;1.93;;;1.27;;
27031;SDS011;14580;52.918;9.214;2023-02-28T15:12:52;1.70;;;1.27;;
27031;SDS011;14580;52.918;9.214;2023-02-28T15:15:21;0.93;;;0.83;;
27031;SDS011;14580;52.918;9.214;2023-02-28T15:18:01;2.30;;;1.40;;
27031;SDS011;14580;52.918;9.214;2023-02-28T15:20:31;1.50;;;0.93;;
27031;SDS011;14580;52.918;9.214;2023-02-28T15:22:58;2.27;;;1.30;;
27031;SDS011;14580;52.918;9.214;2023-02-28T15:25:26;2.20;;;1.23;;
27031;SDS011;14580;52.918;9.214;2023-02-28T15:27:54;1.90;;;1.03;;
27031;SDS011;14580;52.918;9.214;2023-02-28T15:30:31;4.53;;;1.80;;
27031;SDS011;14580;52.918;9.214;2023-02-28T15:33:02;1.97;;;1.30;;
27031;SDS011;14580;52.918;9.214;2023-02-28T15:35:31;3.57;;;1.80;;
27031;SDS011;14580;52.918;9.214;2023-02-28T15:38:16;2.33;;;1.60;;
27031;SDS011;14580;52.918;9.214;2023-02-28T15:40:52;6.33;;;1.97;;
27031;SDS011;14580;52.918;9.214;2023-02-28T15:43:32;1.93;;;1.40;;
27031;SDS011;14580;52.918;9.214;2023-02-28T15:46:12;3.53;;;1.90;;
27031;SDS011;14580;52.918;9.214;2023-02-28T15:51:22;1.77;;;1.17;;
27031;SDS011;14580;52.918;9.214;2023-02-28T15:54:04;3.70;;;2.10;;
27031;SDS011;14580;52.918;9.214;2023-02-28T15:56:52;7.33;;;3.60;;
27031;SDS011;14580;52.918;9.214;2023-02-28T15:59:27;2.90;;;2.23;;
27031;SDS011;14580;52.918;9.214;2023-02-28T16:04:35;1.83;;;1.30;;
27031;SDS011;14580;52.918;9.214;2023-02-28T16:08:01;3.17;;;2.00;;
27031;SDS011;14580;52.918;9.214;2023-02-28T16:11:43;4.77;;;1.27;;
27031;SDS011;14580;52.918;9.214;2023-02-28T16:15:17;3.30;;;1.70;;
27031;SDS011;14580;52.918;9.214;2023-02-28T16:18:49;3.53;;;1.60;;
27031;SDS011;14580;52.918;9.214;2023-02-28T16:22:14;2.17;;;1.50;;
27031;SDS011;14580;52.918;9.214;2023-02-28T16:25:40;1.87;;;1.30;;
27031;SDS011;14580;52.918;9.214;2023-02-28T16:29:08;2.53;;;1.03;;
27031;SDS011;14580;52.918;9.214;2023-02-28T16:32:41;2.30;;;1.20;;
27031;SDS011;14580;52.918;9.214;2023-02-28T16:36:06;2.03;;;1.40;;
27031;SDS011;14580;52.918;9.214;2023-02-28T16:39:40;2.00;;;1.50;;
27031;SDS011;14580;52.918;9.214;2023-02-28T16:43:24;1.67;;;1.37;;
27031;SDS011;14580;52.918;9.214;2023-02-28T16:46:16;2.03;;;1.30;;
27031;SDS011;14580;52.918;9.214;2023-02-28T16:49:42;1.60;;;1.07;;
27031;SDS011;14580;52.918;9.214;2023-02-28T16:53:08;1.37;;;1.23;;
27031;SDS011;14580;52.918;9.214;2023-02-28T16:56:33;2.13;;;1.03;;
27031;SDS011;14580;52.918;9.214;2023-02-28T16:59:58;1.90;;;1.30;;
27031;SDS011;14580;52.918;9.214;2023-02-28T17:03:24;1.80;;;1.10;;
27031;SDS011;14580;52.918;9.214;2023-02-28T17:06:25;2.93;;;1.27;;
27031;SDS011;14580;52.918;9.214;2023-02-28T17:09:51;2.60;;;1.50;;
27031;SDS011;14580;52.918;9.214;2023-02-28T17:13:16;1.73;;;1.30;;
27031;SDS011;14580;52.918;9.214;2023-02-28T17:16:41;2.33;;;1.53;;
27031;SDS011;14580;52.918;9.214;2023-02-28T17:20:11;3.27;;;1.17;;
27031;SDS011;14580;52.918;9.214;2023-02-28T17:23:38;4.30;;;1.43;;
27031;SDS011;14580;52.918;9.214;2023-02-28T17:27:03;3.40;;;1.43;;
27031;SDS011;14580;52.918;9.214;2023-02-28T17:30:28;2.13;;;1.30;;
27031;SDS011;14580;52.918;9.214;2023-02-28T17:33:58;2.67;;;1.80;;
27031;SDS011;14580;52.918;9.214;2023-02-28T17:37:22;4.40;;;1.90;;
27031;SDS011;14580;52.918;9.214;2023-02-28T17:40:48;1.70;;;1.60;;
27031;SDS011;14580;52.918;9.214;2023-02-28T17:44:13;2.23;;;1.63;;
27031;SDS011;14580;52.918;9.214;2023-02-28T17:47:23;3.87;;;2.47;;
27031;SDS011;14580;52.918;9.214;2023-02-28T17:50:47;2.70;;;2.40;;
27031;SDS011;14580;52.918;9.214;2023-02-28T17:53:14;5.30;;;2.37;;
27031;SDS011;14580;52.918;9.214;2023-02-28T17:55:43;4.37;;;2.63;;
27031;SDS011;14580;52.918;9.214;2023-02-28T17:58:22;2.73;;;2.23;;
27031;SDS011;14580;52.918;9.214;2023-02-28T18:01:42;4.03;;;2.33;;
27031;SDS011;14580;52.918;9.214;2023-02-28T18:04:29;2.57;;;1.77;;
27031;SDS011;14580;52.918;9.214;2023-02-28T18:07:53;9.93;;;2.60;;
27031;SDS011;14580;52.918;9.214;2023-02-28T18:11:22;3.87;;;2.00;;
27031;SDS011;14580;52.918;9.214;2023-02-28T18:14:48;3.40;;;2.40;;
27031;SDS011;14580;52.918;9.214;2023-02-28T18:18:13;2.57;;;1.90;;
27031;SDS011;14580;52.918;9.214;2023-02-28T18:21:41;4.20;;;2.63;;
27031;SDS011;14580;52.918;9.214;2023-02-28T18:25:11;3.97;;;2.13;;
27031;SDS011;14580;52.918;9.214;2023-02-28T18:28:37;4.47;;;3.27;;
27031;SDS011;14580;52.918;9.214;2023-02-28T18:32:03;5.20;;;3.77;;
27031;SDS011;14580;52.918;9.214;2023-02-28T18:34:33;6.70;;;4.50;;
27031;SDS011;14580;52.918;9.214;2023-02-28T18:37:22;11.27;;;6.67;;
27031;SDS011;14580;52.918;9.214;2023-02-28T18:39:48;15.40;;;7.37;;
27031;SDS011;14580;52.918;9.214;2023-02-28T18:42:15;16.43;;;8.83;;
27031;SDS011;14580;52.918;9.214;2023-02-28T18:44:41;9.77;;;7.20;;
27031;SDS011;14580;52.918;9.214;2023-02-28T18:47:07;8.43;;;6.43;;
27031;SDS011;14580;52.918;9.214;2023-02-28T18:49:35;11.20;;;5.73;;
27031;SDS011;14580;52.918;9.214;2023-02-28T18:52:02;9.53;;;5.33;;
27031;SDS011;14580;52.918;9.214;2023-02-28T18:54:28;6.87;;;4.83;;
27031;SDS011;14580;52.918;9.214;2023-02-28T18:56:55;6.53;;;5.13;;
27031;SDS011;14580;52.918;9.214;2023-02-28T18:59:24;7.23;;;4.97;;
27031;SDS011;14580;52.918;9.214;2023-02-28T19:01:53;5.87;;;5.27;;
27031;SDS011;14580;52.918;9.214;2023-02-28T19:04:20;12.67;;;5.47;;
27031;SDS011;14580;52.918;9.214;2023-02-28T19:06:46;9.33;;;5.57;;
27031;SDS011;14580;52.918;9.214;2023-02-28T19:09:13;8.60;;;5.80;;
27031;SDS011;14580;52.918;9.214;2023-02-28T19:11:40;9.47;;;5.63;;
27031;SDS011;14580;52.918;9.214;2023-02-28T19:14:06;10.43;;;5.53;;
27031;SDS011;14580;52.918;9.214;2023-02-28T19:16:33;7.30;;;5.67;;
27031;SDS011;14580;52.918;9.214;2023-02-28T19:18:59;7.30;;;5.60;;
27031;SDS011;14580;52.918;9.214;2023-02-28T19:21:26;10.67;;;6.53;;
27031;SDS011;14580;52.918;9.214;2023-02-28T19:23:52;9.00;;;7.00;;
27031;SDS011;14580;52.918;9.214;2023-02-28T19:26:22;9.43;;;6.37;;
27031;SDS011;14580;52.918;9.214;2023-02-28T19:28:50;10.87;;;6.67;;
27031;SDS011;14580;52.918;9.214;2023-02-28T19:31:18;9.67;;;6.43;;
27031;SDS011;14580;52.918;9.214;2023-02-28T19:33:49;8.93;;;5.87;;
27031;SDS011;14580;52.918;9.214;2023-02-28T19:36:17;9.10;;;5.67;;
27031;SDS011;14580;52.918;9.214;2023-02-28T19:38:44;12.00;;;6.37;;
27031;SDS011;14580;52.918;9.214;2023-02-28T19:41:12;9.83;;;5.63;;
27031;SDS011;14580;52.918;9.214;2023-02-28T19:43:40;8.77;;;6.13;;
27031;SDS011;14580;52.918;9.214;2023-02-28T19:46:07;7.13;;;4.10;;
27031;SDS011;14580;52.918;9.214;2023-02-28T19:48:34;6.93;;;5.20;;
27031;SDS011;14580;52.918;9.214;2023-02-28T19:51:01;9.33;;;5.17;;
27031;SDS011;14580;52.918;9.214;2023-02-28T19:53:32;6.10;;;4.23;;
27031;SDS011;14580;52.918;9.214;2023-02-28T19:56:02;6.97;;;4.10;;
27031;SDS011;14580;52.918;9.214;2023-02-28T19:58:29;6.53;;;4.10;;
27031;SDS011;14580;52.918;9.214;2023-02-28T20:00:57;6.17;;;3.97;;
27031;SDS011;14580;52.918;9.214;2023-02-28T20:03:25;7.97;;;4.43;;
27031;SDS011;14580;52.918;9.214;2023-02-28T20:06:02;11.47;;;4.83;;
27031;SDS011;14580;52.918;9.214;2023-02-28T20:08:35;8.27;;;4.60;;
27031;SDS011;14580;52.918;9.214;2023-02-28T20:11:06;6.77;;;4.80;;